Florencia, Florencia Gustavo Artunduaga Paredes Airport (SKFL)

NameFlorencia Gustavo Artunduaga Paredes Airport
CityFlorencia
CountryColombia
ICAOSKFL
IATAFLA
Altitude245 m
CoordinatesGoogle Map
Live Air TrafficLiveATC.net
METARSKFL 141800Z 00000KT 7000 VCSH BKN015 27/24 A3001 RMK VCSH/N
2019-09-14 18:00:00 Wind: North (0°) 0 m/s - Visibility: 7000 m - Weather: Vicinity Showers - Temperature: 27 °C - Dew point: 24 °C - Humidity: 83.7% - Pressure: 1016.26 hPa

Sorry, no flights used the airport in this database.